createdAt,value
2022-09-28T00:02:10.940Z,6.92
2022-09-28T00:05:12.853Z,6.91
2022-09-28T00:08:15.086Z,6.90
2022-09-28T00:11:20.911Z,6.90
2022-09-28T00:14:22.694Z,6.87
2022-09-28T00:17:26.953Z,6.85
2022-09-28T00:20:28.925Z,6.86
2022-09-28T00:23:30.813Z,6.85
2022-09-28T00:26:34.158Z,6.85
2022-09-28T00:29:38.245Z,6.84
2022-09-28T00:32:40.025Z,6.86
2022-09-28T00:35:41.887Z,6.85
2022-09-28T00:38:46.706Z,6.86
2022-09-28T00:41:50.489Z,6.87
2022-09-28T00:44:53.195Z,6.86
2022-09-28T00:47:58.213Z,6.88
2022-09-28T00:51:03.039Z,6.87
2022-09-28T00:54:05.841Z,6.87
2022-09-28T00:57:09.705Z,6.84
2022-09-28T01:00:12.542Z,6.84
2022-09-28T01:03:14.578Z,6.85
2022-09-28T01:06:18.284Z,6.85
2022-09-28T01:09:21.483Z,6.86
2022-09-28T01:12:24.886Z,6.84
2022-09-28T01:15:28.321Z,6.83
2022-09-28T01:18:35.638Z,6.82
2022-09-28T01:21:48.213Z,6.83
2022-09-28T01:24:54.746Z,6.84
2022-09-28T01:28:00.030Z,6.89
2022-09-28T01:31:08.189Z,6.92
2022-09-28T01:34:13.796Z,6.90
2022-09-28T01:37:18.477Z,6.92
2022-09-28T01:40:23.895Z,6.88
2022-09-28T01:43:28.266Z,6.91
2022-09-28T01:46:33.441Z,6.89
2022-09-28T01:49:38.835Z,6.87
2022-09-28T01:52:44.751Z,6.90
2022-09-28T01:55:48.746Z,6.87
2022-09-28T01:58:55.490Z,6.86
2022-09-28T02:01:58.976Z,6.85
2022-09-28T02:05:03.270Z,6.85
2022-09-28T02:08:07.825Z,6.84
2022-09-28T02:11:14.225Z,6.87
2022-09-28T02:14:20.788Z,6.93
2022-09-28T02:17:22.775Z,6.97
2022-09-28T02:20:25.311Z,7.00
2022-09-28T02:23:29.341Z,6.99
2022-09-28T02:26:32.380Z,7.01
2022-09-28T02:29:35.549Z,7.02
2022-09-28T02:32:40.507Z,7.02
2022-09-28T02:35:43.195Z,7.02
2022-09-28T02:38:44.995Z,7.05
2022-09-28T02:41:54.041Z,7.05
2022-09-28T02:45:10.999Z,7.07
2022-09-28T02:48:35.917Z,7.04
2022-09-28T02:51:45.078Z,6.98
2022-09-28T02:54:55.055Z,6.93
2022-09-28T02:58:03.805Z,6.92
2022-09-28T03:01:12.691Z,6.90
2022-09-28T03:04:18.977Z,6.92
2022-09-28T03:07:24.732Z,6.93
2022-09-28T03:10:31.015Z,6.93
2022-09-28T03:13:38.289Z,6.94
2022-09-28T03:16:44.921Z,6.98
2022-09-28T03:19:46.701Z,6.95
2022-09-28T03:23:06.021Z,6.95
2022-09-28T03:26:11.510Z,6.95
2022-09-28T03:29:13.731Z,6.94
2022-09-28T03:32:17.011Z,6.93
2022-09-28T03:35:19.309Z,6.94
2022-09-28T03:38:21.692Z,6.90
2022-09-28T03:41:24.395Z,6.90
2022-09-28T03:44:26.382Z,6.89
2022-09-28T03:47:30.658Z,6.87
2022-09-28T03:50:32.409Z,6.84
2022-09-28T03:53:34.048Z,6.85
2022-09-28T03:56:35.902Z,6.75
2022-09-28T03:59:37.772Z,6.64
2022-09-28T04:02:41.116Z,6.59
2022-09-28T04:05:48.931Z,6.54
2022-09-28T04:08:51.206Z,6.49
2022-09-28T04:12:03.716Z,6.43
2022-09-28T04:15:06.960Z,6.38
2022-09-28T04:18:11.305Z,6.30
2022-09-28T04:21:13.972Z,6.26
2022-09-28T04:24:15.829Z,6.21
2022-09-28T04:27:36.177Z,6.16
2022-09-28T04:30:38.103Z,6.13
2022-09-28T04:33:41.319Z,6.10
2022-09-28T04:36:46.042Z,6.08
2022-09-28T04:39:48.715Z,6.11
2022-09-28T04:42:53.487Z,6.09
2022-09-28T04:45:58.140Z,6.10
2022-09-28T04:49:01.821Z,6.09
2022-09-28T04:52:03.963Z,6.12
2022-09-28T04:55:06.461Z,6.13
2022-09-28T04:58:09.074Z,6.15
2022-09-28T05:01:12.406Z,6.22
2022-09-28T05:04:19.470Z,6.20
2022-09-28T05:07:23.413Z,6.26
2022-09-28T05:10:25.491Z,6.29
2022-09-28T05:13:27.538Z,6.25
2022-09-28T05:16:31.041Z,6.27
2022-09-28T05:19:35.172Z,6.29
2022-09-28T05:22:37.318Z,6.30
2022-09-28T05:25:39.120Z,6.34
2022-09-28T05:28:41.197Z,6.34
2022-09-28T05:31:43.254Z,6.31
2022-09-28T05:34:46.504Z,6.33
2022-09-28T05:37:48.778Z,6.34
2022-09-28T05:40:51.399Z,6.37
2022-09-28T05:43:55.037Z,6.37
2022-09-28T05:46:57.247Z,6.37
2022-09-28T05:50:00.570Z,6.35
2022-09-28T05:53:03.597Z,6.36
2022-09-28T05:56:05.604Z,6.39
2022-09-28T05:59:07.451Z,6.36
2022-09-28T06:02:10.182Z,6.34
2022-09-28T06:05:13.367Z,6.35
2022-09-28T06:08:15.106Z,6.36
2022-09-28T06:11:16.912Z,6.34
2022-09-28T06:14:20.808Z,6.32
2022-09-28T06:17:23.712Z,6.32
2022-09-28T06:20:29.397Z,6.32
2022-09-28T06:23:31.369Z,6.31
2022-09-28T06:26:33.259Z,6.29
2022-09-28T06:29:35.339Z,6.29
2022-09-28T06:32:38.058Z,6.26
2022-09-28T06:35:42.573Z,6.27
2022-09-28T06:38:45.280Z,6.29
2022-09-28T06:41:47.116Z,6.35
2022-09-28T06:44:49.038Z,6.34
2022-09-28T06:47:53.082Z,6.39
2022-09-28T06:51:00.103Z,6.38
2022-09-28T06:54:02.005Z,6.41
2022-09-28T06:57:03.926Z,6.42
2022-09-28T07:00:06.038Z,6.42
2022-09-28T07:03:08.503Z,6.43
2022-09-28T07:06:12.761Z,6.39
2022-09-28T07:09:30.655Z,6.43
2022-09-28T07:12:35.493Z,6.44
2022-09-28T07:15:38.301Z,6.48
2022-09-28T07:18:40.542Z,6.53
2022-09-28T07:21:46.155Z,6.55
2022-09-28T07:24:50.033Z,6.57
2022-09-28T07:27:55.567Z,6.63
2022-09-28T07:30:57.697Z,6.66
2022-09-28T07:33:59.414Z,6.74
2022-09-28T07:37:02.893Z,6.77
2022-09-28T07:40:24.277Z,6.76
2022-09-28T07:43:26.393Z,6.81
2022-09-28T07:46:29.601Z,6.82
2022-09-28T07:49:32.992Z,6.87
2022-09-28T07:52:37.270Z,6.88
2022-09-28T07:55:39.469Z,6.89
2022-09-28T07:58:41.253Z,6.91
2022-09-28T08:01:43.513Z,6.90
2022-09-28T08:04:45.801Z,6.96
2022-09-28T08:07:54.839Z,6.99
2022-09-28T08:10:56.806Z,7.01
2022-09-28T08:14:00.291Z,6.98
2022-09-28T08:17:02.159Z,7.06
2022-09-28T08:20:22.836Z,7.04
2022-09-28T08:23:34.383Z,7.07
2022-09-28T08:26:36.213Z,7.06
2022-09-28T08:29:38.277Z,7.04
2022-09-28T08:32:42.605Z,7.02
2022-09-28T08:35:46.947Z,7.00
2022-09-28T08:38:52.254Z,7.06
2022-09-28T08:41:59.246Z,7.12
2022-09-28T08:45:07.275Z,7.08
2022-09-28T08:48:30.759Z,7.13
2022-09-28T08:51:37.303Z,7.15
2022-09-28T08:54:46.353Z,7.22
2022-09-28T08:57:52.252Z,7.28
2022-09-28T09:00:57.875Z,7.35
2022-09-28T09:04:00.136Z,7.34
2022-09-28T09:07:19.755Z,7.30
2022-09-28T09:10:38.877Z,7.30
2022-09-28T09:13:52.631Z,7.34
2022-09-28T09:17:00.966Z,7.34
2022-09-28T09:20:09.446Z,7.32
2022-09-28T09:23:17.124Z,7.38
2022-09-28T09:26:25.754Z,7.44
2022-09-28T09:29:31.889Z,7.48
2022-09-28T09:32:53.573Z,7.52
2022-09-28T09:36:05.446Z,7.54
2022-09-28T09:39:17.382Z,7.53
2022-09-28T09:42:30.836Z,7.52
2022-09-28T09:45:41.071Z,7.52
2022-09-28T09:48:47.338Z,7.45
2022-09-28T09:51:54.487Z,7.43
2022-09-28T09:54:59.281Z,7.45
2022-09-28T09:58:05.408Z,7.43
2022-09-28T10:01:14.704Z,7.43
2022-09-28T10:04:20.017Z,7.41
2022-09-28T10:07:25.917Z,7.36
2022-09-28T10:10:28.848Z,7.31
2022-09-28T10:13:35.746Z,7.35
2022-09-28T10:16:37.751Z,7.41
2022-09-28T10:19:39.780Z,7.41
2022-09-28T10:22:42.096Z,7.40
2022-09-28T10:25:46.318Z,7.35
2022-09-28T10:28:52.479Z,7.30
2022-09-28T10:31:54.765Z,7.28
2022-09-28T10:35:19.599Z,7.27
2022-09-28T10:38:22.488Z,7.22
2022-09-28T10:41:27.722Z,7.23
2022-09-28T10:44:32.315Z,7.28
2022-09-28T10:47:35.688Z,7.32
2022-09-28T10:50:39.281Z,7.29
2022-09-28T10:53:41.399Z,7.26
2022-09-28T10:56:44.500Z,7.23
2022-09-28T10:59:47.705Z,7.30
2022-09-28T11:02:50.021Z,7.32
2022-09-28T11:05:56.796Z,7.33
2022-09-28T11:09:00.650Z,7.37
2022-09-28T11:12:04.559Z,7.43
2022-09-28T11:15:17.223Z,7.46
2022-09-28T11:18:22.609Z,7.52
2022-09-28T11:21:25.605Z,7.50
2022-09-28T11:24:27.654Z,7.51
2022-09-28T11:27:30.105Z,7.51
2022-09-28T11:30:35.038Z,7.47
2022-09-28T11:33:39.018Z,7.48
2022-09-28T11:36:51.915Z,7.50
2022-09-28T11:39:59.403Z,7.52
2022-09-28T11:43:08.269Z,7.54
2022-09-28T11:46:18.451Z,7.56
2022-09-28T11:49:27.020Z,7.75
2022-09-28T11:52:35.146Z,7.93
2022-09-28T11:55:41.252Z,7.92
2022-09-28T11:58:45.367Z,7.90
2022-09-28T12:01:52.097Z,7.85
2022-09-28T12:04:56.990Z,7.78
2022-09-28T12:08:02.496Z,7.77
2022-09-28T12:11:09.785Z,7.75
2022-09-28T12:14:17.900Z,7.74
2022-09-28T12:17:24.027Z,7.73
2022-09-28T12:20:27.440Z,7.87
2022-09-28T12:23:31.307Z,7.96
2022-09-28T12:26:37.350Z,8.02
2022-09-28T12:29:41.462Z,8.01
2022-09-28T12:32:46.995Z,8.05
2022-09-28T12:35:57.282Z,8.05
2022-09-28T12:39:21.845Z,8.18
2022-09-28T12:42:41.354Z,8.30
2022-09-28T12:46:10.595Z,8.33
2022-09-28T12:53:02.347Z,8.42
2022-09-28T12:56:11.217Z,8.42
2022-09-28T12:59:18.600Z,8.24
2022-09-28T13:02:38.490Z,8.23
2022-09-28T13:05:49.571Z,8.30
2022-09-28T13:09:01.532Z,8.29
2022-09-28T13:12:12.252Z,8.30
2022-09-28T13:15:23.843Z,8.36
2022-09-28T13:18:30.022Z,8.60
2022-09-28T13:21:39.363Z,8.74
2022-09-28T13:24:45.339Z,8.94
2022-09-28T13:27:50.958Z,8.97
2022-09-28T13:30:55.554Z,8.77
2022-09-28T13:33:58.184Z,8.61
2022-09-28T13:37:22.052Z,8.58
2022-09-28T13:40:48.843Z,8.58
2022-09-28T13:44:04.701Z,8.75
2022-09-28T13:47:24.130Z,8.84
2022-09-28T13:50:35.044Z,8.82
2022-09-28T13:53:46.389Z,9.02
2022-09-28T13:56:51.144Z,8.86
2022-09-28T13:59:59.146Z,8.76
2022-09-28T14:03:05.090Z,8.70
2022-09-28T14:06:12.023Z,8.82
2022-09-28T14:09:26.228Z,8.80
2022-09-28T14:12:44.631Z,8.79
2022-09-28T14:15:46.752Z,8.85
2022-09-28T14:18:50.964Z,8.87
2022-09-28T14:22:04.325Z,8.70
2022-09-28T14:25:15.337Z,8.53
2022-09-28T14:28:27.080Z,8.49
2022-09-28T14:31:29.730Z,8.51
2022-09-28T14:34:37.481Z,8.49
2022-09-28T14:38:03.722Z,8.45
2022-09-28T14:41:11.837Z,8.38
2022-09-28T14:44:14.479Z,8.40
2022-09-28T14:47:26.583Z,8.47
2022-09-28T14:50:31.346Z,8.63
2022-09-28T14:53:39.132Z,8.82
2022-09-28T14:56:45.572Z,8.85
2022-09-28T14:59:48.013Z,8.98
2022-09-28T15:02:52.627Z,9.01
2022-09-28T15:05:55.388Z,9.04
2022-09-28T15:08:57.279Z,9.11
2022-09-28T15:12:01.305Z,9.04
2022-09-28T15:15:05.772Z,8.96
2022-09-28T15:18:22.048Z,8.89
2022-09-28T15:21:24.233Z,8.85
2022-09-28T15:24:31.777Z,8.82
2022-09-28T15:27:39.135Z,8.87
2022-09-28T15:30:41.226Z,8.85
2022-09-28T15:34:01.209Z,8.76
2022-09-28T15:37:09.145Z,8.69
2022-09-28T15:40:12.862Z,8.70
2022-09-28T15:43:24.289Z,8.72
2022-09-28T15:46:32.684Z,8.68
2022-09-28T15:49:39.049Z,8.69
2022-09-28T15:52:46.616Z,8.67
2022-09-28T15:55:50.351Z,8.65
2022-09-28T15:59:19.853Z,8.60
2022-09-28T16:02:26.206Z,8.57
2022-09-28T16:05:37.874Z,8.57
2022-09-28T16:08:42.159Z,8.56
2022-09-28T16:11:44.061Z,8.54
2022-09-28T16:14:49.031Z,8.48
2022-09-28T16:17:52.430Z,8.42
2022-09-28T16:20:56.401Z,8.38
2022-09-28T16:23:58.795Z,8.38
2022-09-28T16:27:02.432Z,8.36
2022-09-28T16:30:16.963Z,8.32
2022-09-28T16:33:27.270Z,8.29
2022-09-28T16:36:39.197Z,8.23
2022-09-28T16:39:40.882Z,8.22
2022-09-28T16:42:48.937Z,8.19
2022-09-28T16:45:52.626Z,8.09
2022-09-28T16:48:55.776Z,8.03
2022-09-28T16:51:57.657Z,7.97
2022-09-28T16:58:39.797Z,7.95
2022-09-28T17:01:43.953Z,7.95
2022-09-28T17:04:47.780Z,8.02
2022-09-28T17:07:56.391Z,8.03
2022-09-28T17:11:24.006Z,7.99
2022-09-28T17:14:27.334Z,7.94
2022-09-28T17:17:31.567Z,7.93
2022-09-28T17:20:36.769Z,7.94
2022-09-28T17:23:38.850Z,7.97
2022-09-28T17:26:44.612Z,7.98
2022-09-28T17:29:47.104Z,8.03
2022-09-28T17:32:51.649Z,8.03
2022-09-28T17:35:58.401Z,8.01
2022-09-28T17:39:00.646Z,7.96
2022-09-28T17:42:02.956Z,7.95
2022-09-28T17:45:06.594Z,7.96
2022-09-28T17:48:12.653Z,7.94
2022-09-28T17:51:14.763Z,7.95
2022-09-28T17:54:21.159Z,7.92
2022-09-28T17:57:23.427Z,7.90
2022-09-28T18:00:27.522Z,7.91
2022-09-28T18:03:35.687Z,7.95
2022-09-28T18:06:41.614Z,7.93
2022-09-28T18:09:44.611Z,7.97
2022-09-28T18:12:46.624Z,7.95
2022-09-28T18:15:50.749Z,7.95
2022-09-28T18:18:58.400Z,7.95
2022-09-28T18:22:01.624Z,7.95
2022-09-28T18:25:03.741Z,7.96
2022-09-28T18:28:05.592Z,7.99
2022-09-28T18:31:08.924Z,8.02
2022-09-28T18:34:13.878Z,7.99
2022-09-28T18:37:15.814Z,7.96
2022-09-28T18:40:17.878Z,7.98
2022-09-28T18:43:23.860Z,7.96
2022-09-28T18:46:27.826Z,7.93
2022-09-28T18:49:31.892Z,7.93
2022-09-28T18:52:35.515Z,7.94
2022-09-28T18:55:39.256Z,7.93
2022-09-28T18:58:47.669Z,7.93
2022-09-28T19:01:50.111Z,7.91
2022-09-28T19:04:53.517Z,7.93
2022-09-28T19:07:55.386Z,7.93
2022-09-28T19:11:04.340Z,7.91
2022-09-28T19:14:06.297Z,7.91
2022-09-28T19:17:08.580Z,7.90
2022-09-28T19:20:12.065Z,7.93
2022-09-28T19:23:13.995Z,7.93
2022-09-28T19:26:16.801Z,7.88
2022-09-28T19:29:21.711Z,7.84
2022-09-28T19:32:23.495Z,7.80
2022-09-28T19:35:26.548Z,7.79
2022-09-28T19:38:29.110Z,7.78
2022-09-28T19:41:44.984Z,7.78
2022-09-28T19:44:47.645Z,7.78
2022-09-28T19:47:49.966Z,7.76
2022-09-28T19:50:59.098Z,7.79
2022-09-28T19:54:01.760Z,7.78
2022-09-28T19:57:08.859Z,7.80
2022-09-28T20:00:11.619Z,7.79
2022-09-28T20:03:13.471Z,7.80
2022-09-28T20:06:17.505Z,7.80
2022-09-28T20:09:25.190Z,7.78
2022-09-28T20:12:27.387Z,7.78
2022-09-28T20:15:29.230Z,7.79
2022-09-28T20:18:32.335Z,7.78
2022-09-28T20:21:35.730Z,7.81
2022-09-28T20:24:37.518Z,7.84
2022-09-28T20:27:39.829Z,7.87
2022-09-28T20:30:43.279Z,7.89
2022-09-28T20:33:45.395Z,7.90
2022-09-28T20:36:49.756Z,7.85
2022-09-28T20:39:51.721Z,7.83
2022-09-28T20:42:53.507Z,7.80
2022-09-28T20:45:56.064Z,7.79
2022-09-28T20:48:59.571Z,7.78
2022-09-28T20:52:03.281Z,7.78
2022-09-28T20:55:05.862Z,7.77
2022-09-28T20:58:07.922Z,7.77
2022-09-28T21:01:11.153Z,7.74
2022-09-28T21:04:13.405Z,7.73
2022-09-28T21:07:17.230Z,7.73
2022-09-28T21:10:19.096Z,7.77
2022-09-28T21:13:21.110Z,7.76
2022-09-28T21:16:23.163Z,7.75
2022-09-28T21:19:25.129Z,7.75
2022-09-28T21:22:30.146Z,7.73
2022-09-28T21:25:31.964Z,7.68
2022-09-28T21:28:34.594Z,7.65
2022-09-28T21:31:37.922Z,7.61
2022-09-28T21:34:39.871Z,7.57
2022-09-28T21:37:43.013Z,7.55
2022-09-28T21:40:45.330Z,7.50
2022-09-28T21:43:47.329Z,7.46
2022-09-28T21:46:49.759Z,7.40
2022-09-28T21:49:55.717Z,7.40
2022-09-28T21:53:12.590Z,7.34
2022-09-28T21:56:15.708Z,7.37
2022-09-28T21:59:17.409Z,7.31
2022-09-28T22:02:20.997Z,7.30
2022-09-28T22:05:22.918Z,7.24
2022-09-28T22:08:26.715Z,7.20
2022-09-28T22:11:31.766Z,7.15
2022-09-28T22:14:46.387Z,7.08
2022-09-28T22:17:48.753Z,7.06
2022-09-28T22:20:58.634Z,7.07
2022-09-28T22:24:04.079Z,6.93
2022-09-28T22:27:06.130Z,6.89
2022-09-28T22:30:08.610Z,6.83
2022-09-28T22:33:10.494Z,6.82
2022-09-28T22:36:15.179Z,6.83
2022-09-28T22:39:24.973Z,6.87
2022-09-28T22:42:26.784Z,6.96
2022-09-28T22:45:28.425Z,6.94
2022-09-28T22:48:30.901Z,6.99
2022-09-28T22:51:32.789Z,6.87
2022-09-28T22:54:37.680Z,6.82
2022-09-28T22:57:40.025Z,6.80
2022-09-28T23:00:44.376Z,6.69
2022-09-28T23:03:46.826Z,6.65
2022-09-28T23:06:49.564Z,6.69
2022-09-28T23:09:53.227Z,6.73
2022-09-28T23:12:55.339Z,6.74
2022-09-28T23:15:57.810Z,6.75
2022-09-28T23:18:59.767Z,6.78
2022-09-28T23:22:01.727Z,6.79
2022-09-28T23:25:05.459Z,6.74
2022-09-28T23:28:07.339Z,6.66
2022-09-28T23:31:09.845Z,6.64
2022-09-28T23:34:11.658Z,6.58
2022-09-28T23:37:14.217Z,6.53
2022-09-28T23:40:17.767Z,6.55
2022-09-28T23:43:19.873Z,6.60
2022-09-28T23:46:24.723Z,6.67
2022-09-28T23:49:29.341Z,6.73
2022-09-28T23:52:31.432Z,6.74
2022-09-28T23:55:35.885Z,6.68
2022-09-28T23:58:38.428Z,6.80
